createdAt,value
2022-11-05T00:00:18.710Z,51.1
2022-11-05T00:05:18.690Z,51.1
2022-11-05T00:10:18.826Z,51.3
2022-11-05T00:15:18.702Z,51.8
2022-11-05T00:20:18.577Z,51.9
2022-11-05T00:25:18.631Z,51.9
2022-11-05T00:30:15.621Z,52.0
2022-11-05T00:35:15.515Z,52.1
2022-11-05T00:40:18.631Z,51.9
2022-11-05T00:45:18.897Z,52.2
2022-11-05T00:50:18.779Z,52.0
2022-11-05T00:55:18.730Z,51.8
2022-11-05T01:00:18.809Z,52.0
2022-11-05T01:05:18.790Z,51.7
2022-11-05T01:10:18.750Z,51.8
2022-11-05T01:15:18.790Z,51.9
2022-11-05T01:20:18.810Z,51.7
2022-11-05T01:25:15.752Z,51.4
2022-11-05T01:30:18.759Z,51.4
2022-11-05T01:35:18.785Z,51.7
2022-11-05T01:40:18.776Z,52.0
2022-11-05T01:45:18.797Z,52.2
2022-11-05T01:50:18.837Z,52.8
2022-11-05T01:55:18.904Z,53.2
2022-11-05T02:00:18.893Z,53.4
2022-11-05T02:05:18.894Z,53.6
2022-11-05T02:10:18.850Z,53.8
2022-11-05T02:15:15.719Z,53.9
2022-11-05T02:20:15.636Z,54.0
2022-11-05T02:25:18.910Z,53.9
2022-11-05T02:30:18.794Z,54.2
2022-11-05T02:35:18.940Z,54.2
2022-11-05T02:40:18.908Z,54.1
2022-11-05T02:45:18.933Z,54.2
2022-11-05T02:50:18.895Z,54.2
2022-11-05T02:55:18.864Z,54.2
2022-11-05T03:00:18.958Z,54.5
2022-11-05T03:05:18.941Z,54.5
2022-11-05T03:10:15.758Z,54.5
2022-11-05T03:15:15.758Z,54.3
2022-11-05T03:20:18.987Z,54.4
2022-11-05T03:25:19.028Z,54.3
2022-11-05T03:30:18.899Z,54.1
2022-11-05T03:35:19.088Z,54.4
2022-11-05T03:40:19.014Z,54.2
2022-11-05T03:45:18.991Z,54.0
2022-11-05T03:50:19.028Z,53.8
2022-11-05T03:55:19.023Z,53.8
2022-11-05T04:00:20.293Z,53.5
2022-11-05T04:05:20.328Z,53.6
2022-11-05T04:10:20.262Z,53.5
2022-11-05T04:15:20.335Z,53.3
2022-11-05T04:20:20.175Z,53.1
2022-11-05T04:25:20.301Z,53.2
2022-11-05T04:30:17.231Z,53.4
2022-11-05T04:35:17.176Z,53.3
2022-11-05T04:40:20.373Z,53.3
2022-11-05T04:45:20.500Z,53.2
2022-11-05T04:50:20.302Z,53.1
2022-11-05T04:55:20.339Z,53.4
2022-11-05T05:00:20.285Z,53.2
2022-11-05T05:05:20.263Z,53.2
2022-11-05T05:10:20.347Z,53.2
2022-11-05T05:15:20.367Z,53.0
2022-11-05T05:20:20.484Z,53.0
2022-11-05T05:25:17.182Z,53.1
2022-11-05T05:30:17.207Z,53.0
2022-11-05T05:35:20.479Z,53.3
2022-11-05T05:40:20.353Z,53.0
2022-11-05T05:45:20.400Z,53.0
2022-11-05T05:50:20.479Z,52.9
2022-11-05T05:55:20.357Z,53.0
2022-11-05T06:00:20.441Z,53.0
2022-11-05T06:05:20.442Z,53.0
2022-11-05T06:10:20.512Z,52.9
2022-11-05T06:15:17.301Z,52.7
2022-11-05T06:20:17.180Z,52.6
2022-11-05T06:25:20.489Z,52.4
2022-11-05T06:30:20.308Z,52.2
2022-11-05T06:35:20.350Z,52.0
2022-11-05T06:40:20.487Z,52.1
2022-11-05T06:45:20.453Z,51.9
2022-11-05T06:50:20.478Z,52.3
2022-11-05T06:55:20.461Z,52.2
2022-11-05T07:00:20.587Z,52.0
2022-11-05T07:05:20.517Z,51.9
2022-11-05T07:10:17.376Z,51.7
2022-11-05T07:15:17.394Z,51.7
2022-11-05T07:20:20.551Z,51.6
2022-11-05T07:25:20.530Z,51.9
2022-11-05T07:30:20.404Z,52.2
2022-11-05T07:35:20.476Z,52.4
2022-11-05T07:40:20.532Z,52.6
2022-11-05T07:45:20.563Z,52.7
2022-11-05T07:50:15.571Z,52.9
2022-11-05T07:55:20.549Z,52.9
2022-11-05T08:00:18.589Z,52.9
2022-11-05T08:05:18.640Z,53.0
2022-11-05T08:10:18.688Z,53.0
2022-11-05T08:15:18.544Z,53.0
2022-11-05T08:20:18.642Z,53.1
2022-11-05T08:25:18.609Z,53.2
2022-11-05T08:30:18.521Z,53.3
2022-11-05T08:35:18.635Z,53.3
2022-11-05T08:40:15.553Z,53.3
2022-11-05T08:45:15.557Z,53.5
2022-11-05T08:50:15.739Z,53.5
2022-11-05T08:55:18.787Z,53.5
2022-11-05T09:00:18.637Z,53.5
2022-11-05T09:05:18.657Z,53.7
2022-11-05T09:10:18.661Z,54.2
2022-11-05T09:15:18.917Z,54.5
2022-11-05T09:20:18.701Z,54.6
2022-11-05T09:25:18.684Z,54.7
2022-11-05T09:30:18.683Z,54.5
2022-11-05T09:35:15.603Z,54.8
2022-11-05T09:40:15.708Z,54.6
2022-11-05T09:45:18.690Z,54.6
2022-11-05T09:50:18.819Z,54.4
2022-11-05T09:55:18.723Z,54.5
2022-11-05T10:00:18.751Z,54.4
2022-11-05T10:05:18.829Z,54.4
2022-11-05T10:10:18.729Z,54.3
2022-11-05T10:15:18.790Z,54.6
2022-11-05T10:20:18.765Z,54.2
2022-11-05T10:25:18.797Z,54.4
2022-11-05T10:30:15.687Z,54.0
2022-11-05T10:35:18.840Z,53.8
2022-11-05T10:40:18.923Z,54.0
2022-11-05T10:45:18.883Z,54.1
2022-11-05T10:50:18.946Z,54.0
2022-11-05T10:55:18.789Z,53.9
2022-11-05T11:00:18.973Z,53.8
2022-11-05T11:05:18.862Z,53.8
2022-11-05T11:10:18.967Z,53.9
2022-11-05T11:15:18.904Z,53.9
2022-11-05T11:20:15.785Z,54.0
2022-11-05T11:25:15.666Z,54.2
2022-11-05T11:30:18.764Z,54.2
2022-11-05T11:35:19.071Z,54.3
2022-11-05T11:40:18.919Z,54.3
2022-11-05T11:45:18.930Z,54.3
2022-11-05T11:50:18.913Z,54.3
2022-11-05T11:55:18.907Z,54.4
2022-11-05T12:00:18.932Z,54.5
2022-11-05T12:05:18.932Z,54.5
2022-11-05T12:10:19.023Z,54.6
2022-11-05T12:15:15.822Z,54.7
2022-11-05T12:20:15.922Z,55.2
2022-11-05T12:25:19.006Z,55.4
2022-11-05T12:30:18.851Z,55.6
2022-11-05T12:35:19.051Z,55.6
2022-11-05T12:40:18.972Z,55.8
2022-11-05T12:45:18.992Z,56.1
2022-11-05T12:50:19.037Z,56.3
2022-11-05T12:55:19.065Z,56.8
2022-11-05T13:00:19.094Z,56.8
2022-11-05T13:05:19.035Z,57.2
2022-11-05T13:10:15.928Z,57.8
2022-11-05T13:15:19.122Z,57.9
2022-11-05T13:20:19.072Z,57.8
2022-11-05T13:25:19.051Z,58.0
2022-11-05T13:30:18.924Z,58.0
2022-11-05T13:35:19.220Z,58.2
2022-11-05T13:40:19.064Z,58.4
2022-11-05T13:45:19.052Z,58.6
2022-11-05T13:50:19.050Z,58.5
2022-11-05T13:55:19.160Z,58.8
2022-11-05T14:00:15.979Z,59.2
2022-11-05T14:05:15.988Z,59.5
2022-11-05T14:10:19.146Z,59.6
2022-11-05T14:15:19.149Z,60.0
2022-11-05T14:20:19.028Z,60.2
2022-11-05T14:25:19.150Z,60.3
2022-11-05T14:30:19.140Z,60.8
2022-11-05T14:35:19.086Z,60.9
2022-11-05T14:40:19.214Z,61.5
2022-11-05T14:45:19.175Z,62.0
2022-11-05T14:50:19.265Z,62.1
2022-11-05T14:55:16.151Z,62.3
2022-11-05T15:00:16.265Z,62.6
2022-11-05T15:05:19.350Z,62.8
2022-11-05T15:10:19.182Z,62.9
2022-11-05T15:15:21.948Z,63.2
2022-11-05T15:20:19.307Z,63.2
2022-11-05T15:25:19.204Z,63.5
2022-11-05T15:30:19.198Z,63.3
2022-11-05T15:35:19.167Z,63.5
2022-11-05T15:40:19.155Z,63.5
2022-11-05T15:45:16.149Z,63.4
2022-11-05T15:50:16.130Z,63.2
2022-11-05T15:55:19.274Z,63.1
2022-11-05T16:00:19.280Z,63.2
2022-11-05T16:05:19.260Z,63.3
2022-11-05T16:10:19.399Z,63.7
2022-11-05T16:15:19.203Z,63.5
2022-11-05T16:20:19.185Z,63.9
2022-11-05T16:25:19.275Z,63.7
2022-11-05T16:30:19.153Z,63.7
2022-11-05T16:35:19.397Z,63.0
2022-11-05T16:40:16.214Z,63.2
2022-11-05T16:45:16.291Z,63.2
2022-11-05T16:50:19.396Z,63.2
2022-11-05T16:55:19.380Z,62.5
2022-11-05T17:00:19.353Z,62.9
2022-11-05T17:05:19.416Z,63.0
2022-11-05T17:10:19.419Z,63.1
2022-11-05T17:15:19.396Z,62.5
2022-11-05T17:20:19.417Z,63.1
2022-11-05T17:25:19.413Z,62.6
2022-11-05T17:30:19.306Z,62.4
2022-11-05T17:35:16.328Z,62.6
2022-11-05T17:40:16.604Z,62.5
2022-11-05T17:45:19.518Z,62.6
2022-11-05T17:50:19.525Z,63.0
2022-11-05T17:55:19.404Z,62.4
2022-11-05T18:00:19.393Z,62.5
2022-11-05T18:05:19.446Z,62.8
2022-11-05T18:10:19.406Z,62.5
2022-11-05T18:15:19.529Z,62.3
2022-11-05T18:20:19.783Z,62.3
2022-11-05T18:25:16.320Z,62.9
2022-11-05T18:30:16.389Z,62.7
2022-11-05T18:35:19.671Z,62.5
2022-11-05T18:40:19.504Z,62.7
2022-11-05T18:45:19.525Z,62.4
2022-11-05T18:50:19.557Z,62.5
2022-11-05T18:55:19.500Z,62.0
2022-11-05T19:00:19.494Z,62.0
2022-11-05T19:05:28.888Z,62.1
2022-11-05T19:10:19.530Z,61.6
2022-11-05T19:15:19.574Z,61.8
2022-11-05T19:20:16.394Z,61.8
2022-11-05T19:25:16.611Z,62.4
2022-11-05T19:30:19.644Z,62.3
2022-11-05T19:35:19.571Z,62.3
2022-11-05T19:40:19.615Z,62.3
2022-11-05T19:45:55.265Z,62.3
2022-11-05T19:50:19.617Z,62.5
2022-11-05T19:55:19.614Z,62.3
2022-11-05T20:00:19.578Z,62.6
2022-11-05T20:05:19.574Z,62.5
2022-11-05T20:10:16.538Z,62.4
2022-11-05T20:15:16.445Z,62.7
2022-11-05T20:20:19.531Z,62.6
2022-11-05T20:25:19.671Z,62.0
2022-11-05T20:30:19.538Z,62.4
2022-11-05T20:35:19.612Z,62.1
2022-11-05T20:40:19.725Z,61.9
2022-11-05T20:45:19.585Z,62.4
2022-11-05T20:50:19.658Z,62.2
2022-11-05T20:55:19.676Z,62.5
2022-11-05T21:00:19.717Z,62.5
2022-11-05T21:05:16.624Z,62.3
2022-11-05T21:10:16.546Z,62.2
2022-11-05T21:15:19.706Z,62.0
2022-11-05T21:20:19.661Z,62.3
2022-11-05T21:25:19.674Z,62.1
2022-11-05T21:30:19.584Z,61.8
2022-11-05T21:35:19.705Z,62.0
2022-11-05T21:40:19.731Z,61.9
2022-11-05T21:45:19.655Z,61.7
2022-11-05T21:50:22.097Z,61.5
2022-11-05T21:55:19.669Z,61.4
2022-11-05T22:00:16.635Z,61.4
2022-11-05T22:05:19.785Z,61.3
2022-11-05T22:10:19.737Z,61.2
2022-11-05T22:15:19.657Z,61.2
2022-11-05T22:20:19.651Z,61.1
2022-11-05T22:25:20.003Z,61.1
2022-11-05T22:30:19.660Z,61.0
2022-11-05T22:35:19.742Z,61.0
2022-11-05T22:40:23.390Z,60.8
2022-11-05T22:45:19.908Z,60.8
2022-11-05T22:50:16.742Z,60.8
2022-11-05T22:55:16.658Z,61.1
2022-11-05T23:00:19.931Z,61.1
2022-11-05T23:05:19.863Z,60.9
2022-11-05T23:10:19.783Z,61.2
2022-11-05T23:15:19.849Z,61.1
2022-11-05T23:20:19.862Z,61.0
2022-11-05T23:25:19.837Z,60.9
2022-11-05T23:30:19.747Z,61.3
2022-11-05T23:35:20.005Z,61.3
2022-11-05T23:40:19.868Z,61.1
2022-11-05T23:45:16.746Z,60.9
2022-11-05T23:50:16.797Z,60.8
2022-11-05T23:55:20.001Z,61.2
